createdAt,value
2017-07-04T15:17:01.411Z,101630.41
2017-07-04T15:17:23.618Z,101629.47
2017-07-04T15:17:42.409Z,101627.99
2017-07-04T15:18:00.684Z,101632.91
2017-07-04T15:18:17.995Z,101631.04
2017-07-04T15:18:35.399Z,101633.76
2017-07-04T15:18:57.387Z,101635.96
2017-07-04T15:19:24.386Z,101634.60
2017-07-04T15:19:44.403Z,101631.88
2017-07-04T15:20:06.375Z,101631.46
2017-07-04T15:20:28.962Z,101628.66
2017-07-04T15:20:48.311Z,101639.20
2017-07-04T15:21:04.492Z,101632.40
2017-07-04T15:21:26.816Z,101636.81
2017-07-04T15:21:49.041Z,101635.36
2017-07-04T15:22:07.575Z,101633.16
2017-07-04T15:22:25.347Z,101632.31
2017-07-04T15:22:41.672Z,101631.88
2017-07-04T15:23:02.257Z,101633.85
2017-07-04T15:23:22.140Z,101628.96
2017-07-04T15:23:44.550Z,101634.18
2017-07-04T15:24:04.931Z,101628.23
2017-07-04T15:24:25.022Z,101631.46
2017-07-04T15:24:47.117Z,101622.26
2017-07-04T15:25:08.314Z,101628.09
2017-07-04T15:25:26.308Z,101629.23
2017-07-04T15:25:46.917Z,101632.38
2017-07-04T15:26:02.894Z,101625.49
2017-07-04T15:26:27.309Z,101623.62
2017-07-04T15:26:46.293Z,101629.90
2017-07-04T15:27:05.289Z,101627.05
2017-07-04T15:27:24.292Z,101631.98
2017-07-04T15:27:40.476Z,101628.32
2017-07-04T15:28:00.539Z,101630.10
2017-07-04T15:28:20.272Z,101628.66
2017-07-04T15:28:38.866Z,101626.36
2017-07-04T15:29:02.263Z,101625.94
2017-07-04T15:29:22.258Z,101625.61
2017-07-04T15:29:42.225Z,101627.70
2017-07-04T15:30:03.250Z,101624.13
2017-07-04T15:30:25.252Z,101630.41
2017-07-04T15:30:44.893Z,101625.91
2017-07-04T15:31:06.197Z,101621.41
2017-07-04T15:31:23.803Z,101621.92
2017-07-04T15:31:42.076Z,101624.44
2017-07-04T15:31:59.353Z,101618.45
2017-07-04T15:32:20.224Z,101618.58
2017-07-04T15:32:37.942Z,101617.22
2017-07-04T15:32:56.066Z,101617.22
2017-07-04T15:33:15.212Z,101615.34
2017-07-04T15:33:34.995Z,101613.68
2017-07-04T15:33:55.151Z,101613.68
2017-07-04T15:34:11.436Z,101611.69
2017-07-04T15:34:32.021Z,101611.81
2017-07-04T15:34:55.669Z,101610.03
2017-07-04T15:35:15.434Z,101614.52
2017-07-04T15:35:34.892Z,101615.37
2017-07-04T15:35:54.189Z,101619.73
2017-07-04T15:36:11.755Z,101615.95
2017-07-04T15:36:32.956Z,101616.86
2017-07-04T15:36:53.642Z,101620.88
2017-07-04T15:37:12.277Z,101615.34
2017-07-04T15:37:28.388Z,101620.23
2017-07-04T15:37:48.112Z,101618.45
2017-07-04T15:38:06.034Z,101616.80
2017-07-04T15:38:21.804Z,101613.02
2017-07-04T15:38:41.259Z,101619.73
2017-07-04T15:39:01.429Z,101615.22
2017-07-04T15:39:19.247Z,101614.29
2017-07-04T15:39:39.138Z,101611.79
2017-07-04T15:39:59.694Z,101614.14
2017-07-04T15:40:17.177Z,101613.57
2017-07-04T15:40:33.899Z,101614.80
2017-07-04T15:40:52.643Z,101611.15
2017-07-04T15:41:16.156Z,101613.98
2017-07-04T15:41:34.515Z,101620.36
2017-07-04T15:41:56.106Z,101610.58
2017-07-04T15:42:15.153Z,101614.08
2017-07-04T15:42:36.880Z,101612.30
2017-07-04T15:42:58.095Z,101608.65
2017-07-04T15:43:15.100Z,101615.50
2017-07-04T15:43:34.426Z,101608.89
2017-07-04T15:43:53.680Z,101609.44
2017-07-04T15:44:11.087Z,101611.61
2017-07-04T15:44:30.106Z,101610.80
2017-07-04T15:44:48.058Z,101612.58
2017-07-04T15:45:03.080Z,101610.25
2017-07-04T15:45:24.200Z,101610.58
2017-07-04T15:45:42.062Z,101610.58
2017-07-04T15:46:02.745Z,101610.58
2017-07-04T15:46:22.877Z,101610.16
2017-07-04T15:46:41.619Z,101608.38
2017-07-04T15:46:58.717Z,101610.16
2017-07-04T15:47:18.686Z,101611.52
2017-07-04T15:47:36.060Z,101610.94
2017-07-04T15:47:56.039Z,101610.06
2017-07-04T15:48:17.572Z,101609.64
2017-07-04T15:48:37.842Z,101612.78
2017-07-04T15:48:58.526Z,101606.50
2017-07-04T15:49:16.138Z,101604.62
2017-07-04T15:49:34.570Z,101602.84
2017-07-04T15:49:55.869Z,101608.70
2017-07-04T15:50:16.004Z,101604.20
2017-07-04T15:50:31.915Z,101605.56
2017-07-04T15:50:52.803Z,101606.08
2017-07-04T15:51:12.993Z,101603.78
2017-07-04T15:51:32.989Z,101602.64
2017-07-04T15:51:50.985Z,101601.70
2017-07-04T15:52:10.321Z,101603.36
2017-07-04T15:52:27.218Z,101597.92
2017-07-04T15:52:47.707Z,101601.91
2017-07-04T15:53:07.941Z,101600.07
2017-07-04T15:53:27.428Z,101598.20
2017-07-04T15:53:48.933Z,101602.27
2017-07-04T15:54:12.484Z,101598.71
2017-07-04T15:54:28.631Z,101596.98
2017-07-04T15:54:48.937Z,101597.92
2017-07-04T15:55:05.948Z,101596.98
2017-07-04T15:55:26.943Z,101597.92
2017-07-04T15:55:45.023Z,101599.08
2017-07-04T15:56:03.790Z,101599.27
2017-07-04T15:56:24.930Z,101599.78
2017-07-04T15:56:42.928Z,101595.84
2017-07-04T15:56:59.187Z,101600.73
2017-07-04T15:57:18.032Z,101598.44
2017-07-04T15:57:34.721Z,101592.05
2017-07-04T15:57:53.913Z,101605.03
2017-07-04T15:58:11.789Z,101599.17
2017-07-04T15:58:31.905Z,101598.84
2017-07-04T15:58:49.881Z,101598.12
2017-07-04T15:59:08.007Z,101599.78
2017-07-04T15:59:24.595Z,101599.69
2017-07-04T15:59:42.211Z,101599.69
2017-07-04T15:59:59.823Z,101603.77
2017-07-04T16:00:19.924Z,101605.97
2017-07-04T16:00:38.630Z,101597.81
2017-07-04T16:00:59.909Z,101600.63
2017-07-04T16:01:15.889Z,101600.11
2017-07-04T16:01:37.867Z,101601.89
2017-07-04T16:01:57.881Z,101597.80
2017-07-04T16:02:17.961Z,101598.83
2017-07-04T16:02:38.645Z,101599.16
2017-07-04T16:02:54.825Z,101590.67
2017-07-04T16:03:13.367Z,101601.12
2017-07-04T16:03:29.746Z,101599.25
2017-07-04T16:03:48.866Z,101600.84
2017-07-04T16:04:09.836Z,101598.00
2017-07-04T16:04:26.065Z,101599.34
2017-07-04T16:04:45.413Z,101597.87
2017-07-04T16:05:03.043Z,101594.30
2017-07-04T16:05:21.821Z,101598.28
2017-07-04T16:05:41.228Z,101593.27
2017-07-04T16:06:00.474Z,101594.03
2017-07-04T16:06:18.804Z,101597.59
2017-07-04T16:06:42.805Z,101594.54
2017-07-04T16:07:03.801Z,101598.20
2017-07-04T16:07:22.499Z,101601.76
2017-07-04T16:07:41.749Z,101593.09
2017-07-04T16:07:57.822Z,101593.91
2017-07-04T16:08:19.740Z,101593.19
2017-07-04T16:08:38.377Z,101596.51
2017-07-04T16:08:55.989Z,101601.94
2017-07-04T16:09:11.760Z,101597.02
2017-07-04T16:09:30.529Z,101597.02
2017-07-04T16:09:46.678Z,101599.55
2017-07-04T16:10:08.763Z,101596.51
2017-07-04T16:10:28.867Z,101597.87
2017-07-04T16:10:47.605Z,101602.45
2017-07-04T16:11:08.664Z,101594.73
2017-07-04T16:11:33.773Z,101597.02
2017-07-04T16:11:53.039Z,101595.90
2017-07-04T16:13:21.617Z,101603.54
2017-07-04T16:13:40.555Z,101600.61
2017-07-04T16:14:02.707Z,101597.47
2017-07-04T16:14:21.716Z,101593.63
2017-07-04T16:14:39.025Z,101595.08
2017-07-04T16:14:57.726Z,101594.98
2017-07-04T16:15:18.148Z,101592.69
2017-07-04T16:15:37.703Z,101595.83
2017-07-04T16:15:57.982Z,101590.81
2017-07-04T16:16:15.799Z,101594.56
2017-07-04T16:16:34.229Z,101592.34
2017-07-04T16:16:54.681Z,101594.12
2017-07-04T16:17:12.342Z,101595.87
2017-07-04T16:17:31.262Z,101592.73
2017-07-04T16:17:48.060Z,101589.78
2017-07-04T16:18:04.670Z,101591.14
2017-07-04T16:18:21.577Z,101592.31
2017-07-04T16:18:41.666Z,101598.92
2017-07-04T16:19:00.653Z,101591.07
2017-07-04T16:19:19.195Z,101593.79
2017-07-04T16:19:38.241Z,101587.42
2017-07-04T16:19:57.645Z,101593.07
2017-07-04T16:20:13.676Z,101594.28
2017-07-04T16:20:32.926Z,101592.50
2017-07-04T16:20:50.330Z,101584.34
2017-07-04T16:21:07.230Z,101586.88
2017-07-04T16:21:21.152Z,101585.34
2017-07-04T16:21:45.626Z,101589.80
2017-07-04T16:22:03.552Z,101587.52
2017-07-04T16:22:21.155Z,101589.30
2017-07-04T16:22:40.203Z,101585.64
2017-07-04T16:22:57.919Z,101586.99
2017-07-04T16:23:17.170Z,101594.12
2017-07-04T16:23:32.617Z,101587.84
2017-07-04T16:23:53.117Z,101592.76
2017-07-04T16:24:11.621Z,101590.89
2017-07-04T16:24:27.934Z,101586.39
2017-07-04T16:24:45.235Z,101591.83
2017-07-04T16:25:04.281Z,101588.27
2017-07-04T16:25:24.397Z,101585.97
2017-07-04T16:25:42.986Z,101582.41
2017-07-04T16:26:00.498Z,101585.97
2017-07-04T16:26:18.565Z,101585.97
2017-07-04T16:26:33.687Z,101584.70
2017-07-04T16:26:52.559Z,101584.70
2017-07-04T16:27:12.555Z,101587.33
2017-07-04T16:27:30.917Z,101582.22
2017-07-04T16:27:51.547Z,101582.73
2017-07-04T16:28:09.600Z,101585.64
2017-07-04T16:28:30.539Z,101585.22
2017-07-04T16:28:51.200Z,101582.38
2017-07-04T16:29:11.507Z,101582.80
2017-07-04T16:29:30.110Z,101585.19
2017-07-04T16:29:51.523Z,101578.62
2017-07-04T16:30:13.520Z,101578.62
2017-07-04T16:30:32.681Z,101578.40
2017-07-04T16:30:54.510Z,101582.38
2017-07-04T16:31:14.870Z,101578.64
2017-07-04T16:31:36.500Z,101576.34
2017-07-04T16:31:52.651Z,101577.89
2017-07-04T16:32:10.159Z,101577.38
2017-07-04T16:32:32.502Z,101575.50
2017-07-04T16:32:53.554Z,101571.75
2017-07-04T16:33:13.487Z,101580.30
2017-07-04T16:33:34.343Z,101581.14
2017-07-04T16:33:50.618Z,101582.08
2017-07-04T16:34:06.899Z,101578.12
2017-07-04T16:34:24.484Z,101578.94
2017-07-04T16:34:43.270Z,101577.58
2017-07-04T16:35:00.046Z,101579.48
2017-07-04T16:35:14.485Z,101580.84
2017-07-04T16:35:33.609Z,101576.22
2017-07-04T16:35:53.086Z,101574.66
2017-07-04T16:36:12.440Z,101580.09
2017-07-04T16:36:28.930Z,101572.14
2017-07-04T16:36:47.155Z,101576.22
2017-07-04T16:37:07.442Z,101577.48
2017-07-04T16:37:28.429Z,101577.06
2017-07-04T16:37:47.430Z,101575.28
2017-07-04T16:38:06.927Z,101575.70
2017-07-04T16:38:23.309Z,101576.55
2017-07-04T16:38:43.414Z,101580.53
2017-07-04T16:39:03.412Z,101579.59
2017-07-04T16:39:25.407Z,101576.97
2017-07-04T16:39:43.406Z,101572.78
2017-07-04T16:40:05.320Z,101576.77
2017-07-04T16:40:21.581Z,101576.63
2017-07-04T16:40:39.912Z,101577.55
2017-07-04T16:40:59.056Z,101574.23
2017-07-04T16:41:15.383Z,101574.66
2017-07-04T16:41:34.794Z,101569.73
2017-07-04T16:41:53.743Z,101574.84
2017-07-04T16:42:12.070Z,101574.66
2017-07-04T16:42:30.095Z,101574.03
2017-07-04T16:42:49.659Z,101574.84
2017-07-04T16:43:06.747Z,101570.67
2017-07-04T16:43:31.229Z,101571.52
2017-07-04T16:43:48.022Z,101573.81
2017-07-04T16:44:08.805Z,101569.22
2017-07-04T16:44:25.194Z,101571.09
2017-07-04T16:44:44.644Z,101570.67
2017-07-04T16:45:03.893Z,101574.03
2017-07-04T16:45:23.334Z,101573.79
2017-07-04T16:45:40.450Z,101569.72
2017-07-04T16:46:01.327Z,101575.05
2017-07-04T16:46:22.027Z,101574.21
2017-07-04T16:46:42.334Z,101571.71
2017-07-04T16:46:59.376Z,101572.41
2017-07-04T16:47:16.375Z,101569.48
2017-07-04T16:47:34.311Z,101571.56
2017-07-04T16:47:53.576Z,101567.73
2017-07-04T16:48:10.265Z,101568.99
2017-07-04T16:48:26.314Z,101567.21
2017-07-04T16:48:47.030Z,101574.52
2017-07-04T16:49:06.890Z,101569.93
2017-07-04T16:49:26.286Z,101568.99
2017-07-04T16:49:42.836Z,101573.88
2017-07-04T16:50:02.801Z,101564.08
2017-07-04T16:50:19.398Z,101572.08
2017-07-04T16:50:41.268Z,101566.44
2017-07-04T16:51:00.289Z,101569.06
2017-07-04T16:51:20.831Z,101573.44
2017-07-04T16:51:37.256Z,101575.11
2017-07-04T16:51:58.203Z,101568.97
2017-07-04T16:52:16.640Z,101569.27
2017-07-04T16:52:36.250Z,101567.06
2017-07-04T16:52:55.755Z,101565.41
2017-07-04T16:53:13.783Z,101565.27
2017-07-04T16:53:30.772Z,101568.11
2017-07-04T16:53:53.229Z,101564.55
2017-07-04T16:54:12.658Z,101567.17
2017-07-04T16:54:32.224Z,101570.61
2017-07-04T16:54:52.217Z,101563.20
2017-07-04T16:55:10.925Z,101567.61
2017-07-04T16:55:29.209Z,101567.19
2017-07-04T16:55:51.238Z,101567.19
2017-07-04T16:56:09.201Z,101564.14
2017-07-04T16:56:29.230Z,101564.47
2017-07-04T16:56:46.772Z,101566.65
2017-07-04T16:57:02.844Z,101561.42
2017-07-04T16:57:24.187Z,101566.02
2017-07-04T16:57:41.792Z,101575.77
2017-07-04T16:58:02.187Z,101564.90
2017-07-04T16:58:19.756Z,101561.21
2017-07-04T16:58:38.320Z,101562.87
2017-07-04T16:58:56.710Z,101562.45
2017-07-04T16:59:21.203Z,101562.55
2017-07-04T16:59:41.084Z,101559.23
2017-07-04T16:59:57.855Z,101560.67
2017-07-04T17:00:13.725Z,101560.67
2017-07-04T17:00:32.349Z,101558.59
2017-07-04T17:00:49.667Z,101557.75
2017-07-04T17:01:08.729Z,101559.63
2017-07-04T17:01:25.711Z,101564.55
2017-07-04T17:01:45.277Z,101561.19
2017-07-04T17:02:01.765Z,101556.81
2017-07-04T17:02:21.127Z,101561.41
2017-07-04T17:02:38.000Z,101561.50
2017-07-04T17:02:57.121Z,101559.11
2017-07-04T17:03:13.734Z,101558.27
2017-07-04T17:03:30.123Z,101559.95
2017-07-04T17:03:47.110Z,101556.60
2017-07-04T17:04:04.110Z,101559.74
2017-07-04T17:04:23.108Z,101560.67
2017-07-04T17:04:39.860Z,101555.24
2017-07-04T17:04:58.305Z,101557.23
2017-07-04T17:05:14.784Z,101558.27
2017-07-04T17:05:33.098Z,101552.74
2017-07-04T17:05:53.099Z,101561.61
2017-07-04T17:06:11.196Z,101560.16
2017-07-04T17:06:31.078Z,101559.65
2017-07-04T17:06:50.074Z,101559.74
2017-07-04T17:07:13.070Z,101559.31
2017-07-04T17:07:34.064Z,101556.81
2017-07-04T17:07:50.725Z,101562.55
2017-07-04T17:08:11.056Z,101559.11
2017-07-04T17:08:29.743Z,101554.10
2017-07-04T17:08:51.720Z,101558.89
2017-07-04T17:09:11.835Z,101557.53
2017-07-04T17:09:30.262Z,101556.60
2017-07-04T17:09:49.038Z,101559.23
2017-07-04T17:10:08.662Z,101560.49
2017-07-04T17:10:25.350Z,101566.65
2017-07-04T17:10:45.730Z,101560.91
2017-07-04T17:11:05.288Z,101561.52
2017-07-04T17:11:26.484Z,101557.12
2017-07-04T17:11:46.966Z,101562.97
2017-07-04T17:12:03.367Z,101556.91
2017-07-04T17:12:19.323Z,101556.16
2017-07-04T17:12:35.913Z,101556.70
2017-07-04T17:12:56.998Z,101558.78
2017-07-04T17:13:16.994Z,101556.81
2017-07-04T17:13:38.584Z,101557.75
2017-07-04T17:13:55.375Z,101559.02
2017-07-04T17:14:12.814Z,101559.02
2017-07-04T17:14:29.503Z,101560.47
2017-07-04T17:14:46.366Z,101556.06
2017-07-04T17:15:04.493Z,101560.05
2017-07-04T17:15:22.309Z,101559.95
2017-07-04T17:15:41.355Z,101561.83
2017-07-04T17:15:57.542Z,101557.75
2017-07-04T17:16:19.455Z,101551.98
2017-07-04T17:16:38.497Z,101557.52
2017-07-04T17:16:55.701Z,101555.73
2017-07-04T17:17:16.488Z,101559.81
2017-07-04T17:17:34.510Z,101555.64
2017-07-04T17:17:51.994Z,101555.13
2017-07-04T17:18:10.247Z,101556.39
2017-07-04T17:18:28.472Z,101552.65
2017-07-04T17:18:46.600Z,101553.88
2017-07-04T17:19:06.936Z,101556.09
2017-07-04T17:19:23.919Z,101560.38
2017-07-04T17:19:45.789Z,101552.32
2017-07-04T17:20:03.137Z,101555.13
2017-07-04T17:20:24.801Z,101553.86
2017-07-04T17:20:46.906Z,101553.98
2017-07-04T17:21:09.551Z,101551.66
2017-07-04T17:21:31.894Z,101554.20
2017-07-04T17:21:52.453Z,101554.95
2017-07-04T17:22:13.698Z,101553.04
2017-07-04T17:22:34.747Z,101557.44
2017-07-04T17:23:00.248Z,101556.39
2017-07-04T17:23:17.452Z,101555.13
2017-07-04T17:23:33.467Z,101551.14
2017-07-04T17:23:52.863Z,101553.86
2017-07-04T17:24:12.461Z,101558.69
2017-07-04T17:24:34.657Z,101556.81
2017-07-04T17:24:51.450Z,101553.59
2017-07-04T17:25:10.410Z,101557.12
2017-07-04T17:25:30.869Z,101557.12
2017-07-04T17:25:49.725Z,101553.04
2017-07-04T17:26:08.256Z,101549.51
2017-07-04T17:26:28.242Z,101552.65
2017-07-04T17:26:45.833Z,101550.54
2017-07-04T17:27:04.826Z,101554.20
2017-07-04T17:27:21.820Z,101556.39
2017-07-04T17:27:38.462Z,101553.25
2017-07-04T17:27:54.231Z,101555.64
2017-07-04T17:28:16.354Z,101552.92
2017-07-04T17:28:33.350Z,101551.48
2017-07-04T17:28:53.009Z,101548.34
2017-07-04T17:29:11.646Z,101552.08
2017-07-04T17:29:28.139Z,101551.57
2017-07-04T17:29:45.745Z,101552.20
2017-07-04T17:30:04.789Z,101550.94
2017-07-04T17:30:26.832Z,101556.05
2017-07-04T17:30:46.164Z,101550.19
2017-07-04T17:31:05.672Z,101551.45
2017-07-04T17:31:24.815Z,101548.55
2017-07-04T17:31:43.766Z,101548.55
2017-07-04T17:32:01.352Z,101549.36
2017-07-04T17:32:22.761Z,101546.98
2017-07-04T17:32:46.072Z,101548.43
2017-07-04T17:33:04.761Z,101551.57
2017-07-04T17:33:22.115Z,101548.85
2017-07-04T17:33:41.369Z,101549.70
2017-07-04T17:33:59.646Z,101546.88
2017-07-04T17:34:18.643Z,101544.08
2017-07-04T17:34:38.733Z,101551.38
2017-07-04T17:34:56.220Z,101549.60
2017-07-04T17:35:16.753Z,101549.09
2017-07-04T17:35:33.296Z,101547.73
2017-07-04T17:35:53.672Z,101551.98
2017-07-04T17:36:13.712Z,101551.14
2017-07-04T17:36:40.259Z,101549.48
2017-07-04T17:36:58.742Z,101550.00
2017-07-04T17:37:16.921Z,101552.63
2017-07-04T17:37:37.545Z,101555.34
2017-07-04T17:37:56.959Z,101550.52
2017-07-04T17:38:17.443Z,101551.87
2017-07-04T17:38:35.696Z,101551.36
2017-07-04T17:38:55.533Z,101550.84
2017-07-04T17:39:16.625Z,101549.48
2017-07-04T17:39:37.670Z,101553.02
2017-07-04T17:40:00.688Z,101551.14
2017-07-04T17:40:17.042Z,101554.70
2017-07-04T17:40:37.112Z,101552.41
2017-07-04T17:40:58.673Z,101548.43
2017-07-04T17:41:19.201Z,101549.48
2017-07-04T17:41:38.176Z,101546.35
2017-07-04T17:42:00.468Z,101544.05
2017-07-04T17:42:23.640Z,101547.20
2017-07-04T17:42:44.495Z,101547.71
2017-07-04T17:43:05.628Z,101538.63
2017-07-04T17:43:23.921Z,101544.57
2017-07-04T17:43:44.400Z,101555.53
2017-07-04T17:44:01.644Z,101549.07
2017-07-04T17:44:18.502Z,101542.28
2017-07-04T17:44:36.610Z,101548.64
2017-07-04T17:44:57.467Z,101549.48
2017-07-04T17:45:17.590Z,101544.99
2017-07-04T17:45:35.596Z,101547.29
2017-07-04T17:45:54.552Z,101545.09
2017-07-04T17:46:13.297Z,101548.22
2017-07-04T17:46:41.356Z,101542.97
2017-07-04T17:47:02.587Z,101540.80
2017-07-04T17:47:21.576Z,101544.45
2017-07-04T17:47:41.572Z,101544.75
2017-07-04T17:47:58.569Z,101544.23
2017-07-04T17:48:18.915Z,101547.38
2017-07-04T17:48:37.371Z,101544.48
2017-07-04T17:48:57.745Z,101540.08
2017-07-04T17:49:17.555Z,101541.85
2017-07-04T17:49:34.590Z,101539.66
2017-07-04T17:49:53.861Z,101542.97
2017-07-04T17:50:15.010Z,101547.17
2017-07-04T17:50:34.545Z,101543.19
2017-07-04T17:50:57.530Z,101539.63
2017-07-04T17:51:13.735Z,101539.20
2017-07-04T17:51:30.728Z,101543.80
2017-07-04T17:51:49.063Z,101541.41
2017-07-04T17:52:06.552Z,101539.02
2017-07-04T17:52:23.538Z,101537.12
2017-07-04T17:52:43.331Z,101542.46
2017-07-04T17:53:01.578Z,101538.39
2017-07-04T17:53:18.797Z,101539.23
2017-07-04T17:53:36.885Z,101542.88
2017-07-04T17:53:54.603Z,101538.30
2017-07-04T17:54:18.542Z,101537.78
2017-07-04T17:54:39.249Z,101539.05
2017-07-04T17:54:56.964Z,101538.08
2017-07-04T17:55:16.487Z,101539.98
2017-07-04T17:55:38.023Z,101536.84
2017-07-04T17:55:57.992Z,101535.67
2017-07-04T17:56:18.464Z,101541.62
2017-07-04T17:56:40.461Z,101533.80
2017-07-04T17:57:00.051Z,101531.50
2017-07-04T17:57:16.943Z,101540.80
2017-07-04T17:57:39.452Z,101534.64
2017-07-04T17:58:00.444Z,101542.97
2017-07-04T17:58:17.874Z,101539.54
2017-07-04T17:58:35.999Z,101534.71
2017-07-04T17:58:54.227Z,101536.91
2017-07-04T17:59:13.987Z,101541.41
2017-07-04T17:59:33.432Z,101539.72
2017-07-04T17:59:50.852Z,101537.34
2017-07-04T18:00:11.128Z,101535.89
2017-07-04T18:00:27.921Z,101540.90
2017-07-04T18:00:47.466Z,101535.74
2017-07-04T18:01:10.112Z,101540.23
2017-07-04T18:01:30.893Z,101537.52
2017-07-04T18:01:48.203Z,101537.85
2017-07-04T18:02:09.813Z,101541.41
2017-07-04T18:02:27.524Z,101538.37
2017-07-04T18:02:51.392Z,101538.87
2017-07-04T18:03:13.381Z,101539.30
2017-07-04T18:03:34.378Z,101537.94
2017-07-04T18:03:52.386Z,101535.23
2017-07-04T18:04:09.821Z,101534.80
2017-07-04T18:04:28.970Z,101534.59
2017-07-04T18:04:46.478Z,101536.47
2017-07-04T18:05:04.607Z,101535.20
2017-07-04T18:05:23.857Z,101536.89
2017-07-04T18:05:42.360Z,101534.59
2017-07-04T18:05:57.856Z,101540.88
2017-07-04T18:06:15.677Z,101540.88
2017-07-04T18:06:34.714Z,101546.73
2017-07-04T18:06:51.922Z,101536.70
2017-07-04T18:07:10.336Z,101539.19
2017-07-04T18:07:28.345Z,101539.70
2017-07-04T18:07:48.325Z,101541.91
2017-07-04T18:08:07.361Z,101540.97
2017-07-04T18:08:29.398Z,101544.11
2017-07-04T18:08:51.832Z,101542.75
2017-07-04T18:09:09.645Z,101537.73
2017-07-04T18:09:28.904Z,101539.00
2017-07-04T18:09:50.019Z,101535.74
2017-07-04T18:10:08.122Z,101540.66
2017-07-04T18:10:29.217Z,101535.23
2017-07-04T18:10:47.238Z,101536.27
2017-07-04T18:11:09.168Z,101539.08
2017-07-04T18:11:28.294Z,101536.97
2017-07-04T18:11:44.685Z,101533.53
2017-07-04T18:12:04.290Z,101535.49
2017-07-04T18:12:25.268Z,101534.98
2017-07-04T18:12:44.174Z,101536.34
2017-07-04T18:13:03.734Z,101532.68
2017-07-04T18:13:26.474Z,101537.90
2017-07-04T18:13:46.738Z,101536.45
2017-07-04T18:14:11.247Z,101533.31
2017-07-04T18:14:32.245Z,101537.05
2017-07-04T18:14:50.844Z,101534.13
2017-07-04T18:15:14.088Z,101536.42
2017-07-04T18:15:30.506Z,101538.95
2017-07-04T18:15:50.053Z,101531.63
2017-07-04T18:16:09.228Z,101536.45
2017-07-04T18:16:27.939Z,101538.75
2017-07-04T18:16:47.892Z,101534.67
2017-07-04T18:17:04.886Z,101537.30
2017-07-04T18:17:23.007Z,101536.78
2017-07-04T18:17:46.235Z,101538.56
2017-07-04T18:18:05.809Z,101537.90
2017-07-04T18:18:24.042Z,101534.34
2017-07-04T18:18:41.765Z,101531.84
2017-07-04T18:19:01.519Z,101533.11
2017-07-04T18:19:16.775Z,101541.04
2017-07-04T18:19:37.183Z,101532.89
2017-07-04T18:19:59.721Z,101536.24
2017-07-04T18:20:23.187Z,101535.16
2017-07-04T18:20:45.169Z,101542.37
2017-07-04T18:21:03.181Z,101540.92
2017-07-04T18:21:23.854Z,101538.72
2017-07-04T18:21:46.156Z,101532.23
2017-07-04T18:22:03.184Z,101535.80
2017-07-04T18:22:24.147Z,101536.64
2017-07-04T18:22:47.926Z,101541.44
2017-07-04T18:23:08.138Z,101544.58
2017-07-04T18:23:29.143Z,101534.98
2017-07-04T18:23:49.981Z,101541.25
2017-07-04T18:24:11.994Z,101537.60
2017-07-04T18:24:29.301Z,101535.40
2017-07-04T18:24:51.119Z,101539.89
2017-07-04T18:25:10.362Z,101537.27
2017-07-04T18:25:30.113Z,101537.27
2017-07-04T18:25:53.153Z,101538.00
2017-07-04T18:26:13.339Z,101539.13
2017-07-04T18:26:32.979Z,101537.77
2017-07-04T18:26:51.534Z,101541.08
2017-07-04T18:27:09.111Z,101541.48
2017-07-04T18:27:27.141Z,101543.69
2017-07-04T18:27:45.293Z,101538.25
2017-07-04T18:28:05.079Z,101543.48
2017-07-04T18:28:23.691Z,101542.13
2017-07-04T18:28:43.070Z,101540.77
2017-07-04T18:29:04.068Z,101536.36
2017-07-04T18:29:28.062Z,101537.39
2017-07-04T18:29:50.057Z,101536.78
2017-07-04T18:30:13.082Z,101534.27
2017-07-04T18:30:33.048Z,101537.41
2017-07-04T18:30:56.983Z,101536.78
2017-07-04T18:31:17.038Z,101536.88
2017-07-04T18:31:39.056Z,101540.10
2017-07-04T18:32:00.573Z,101540.65
2017-07-04T18:32:18.904Z,101530.81
2017-07-04T18:32:35.984Z,101540.74
2017-07-04T18:32:55.667Z,101536.66
2017-07-04T18:33:14.717Z,101533.64
2017-07-04T18:33:31.074Z,101538.98
2017-07-04T18:33:50.555Z,101535.94
2017-07-04T18:34:07.015Z,101534.89
2017-07-04T18:34:24.001Z,101535.40
2017-07-04T18:34:43.996Z,101531.75
2017-07-04T18:35:04.692Z,101538.45
2017-07-04T18:35:27.988Z,101534.13
2017-07-04T18:35:45.983Z,101537.27
2017-07-04T18:36:05.216Z,101539.98
2017-07-04T18:36:27.223Z,101537.60
2017-07-04T18:36:45.967Z,101540.08
2017-07-04T18:37:05.998Z,101538.84
2017-07-04T18:37:25.967Z,101539.56
2017-07-04T18:37:44.959Z,101540.74
2017-07-04T18:38:02.354Z,101538.12
2017-07-04T18:38:20.786Z,101536.76
2017-07-04T18:38:41.069Z,101539.66
2017-07-04T18:39:03.946Z,101539.78
2017-07-04T18:39:20.080Z,101537.78
2017-07-04T18:39:38.971Z,101539.05
2017-07-04T18:39:58.852Z,101541.58
2017-07-04T18:40:16.055Z,101537.39
2017-07-04T18:40:36.570Z,101542.39
2017-07-04T18:40:53.462Z,101539.59
2017-07-04T18:41:12.511Z,101538.66
2017-07-04T18:41:35.149Z,101539.59
2017-07-04T18:41:53.972Z,101536.58
2017-07-04T18:42:12.117Z,101535.09
2017-07-04T18:42:29.207Z,101542.94
2017-07-04T18:42:45.906Z,101536.76
2017-07-04T18:43:03.901Z,101540.31
2017-07-04T18:43:21.915Z,101535.73
2017-07-04T18:43:42.886Z,101538.75
2017-07-04T18:44:03.898Z,101538.45
2017-07-04T18:44:24.878Z,101538.32
2017-07-04T18:44:44.990Z,101535.84
2017-07-04T18:45:04.476Z,101536.17
2017-07-04T18:45:22.500Z,101535.63
2017-07-04T18:45:42.230Z,101531.98
2017-07-04T18:46:02.516Z,101542.21
2017-07-04T18:46:20.853Z,101540.74
2017-07-04T18:46:39.860Z,101538.02
2017-07-04T18:47:02.849Z,101542.39
2017-07-04T18:47:22.069Z,101532.28
2017-07-04T18:47:44.897Z,101536.78
2017-07-04T18:48:05.831Z,101538.87
2017-07-04T18:48:24.829Z,101543.05
2017-07-04T18:48:46.828Z,101542.55
2017-07-04T18:49:05.493Z,101543.78
2017-07-04T18:49:26.818Z,101542.13
2017-07-04T18:49:49.811Z,101540.10
2017-07-04T18:50:13.714Z,101543.45
2017-07-04T18:50:32.747Z,101544.30
2017-07-04T18:50:50.797Z,101543.64
2017-07-04T18:51:10.223Z,101543.13
2017-07-04T18:51:31.923Z,101542.94
2017-07-04T18:51:54.785Z,101539.80
2017-07-04T18:52:13.396Z,101540.22
2017-07-04T18:52:31.782Z,101543.36
2017-07-04T18:52:54.568Z,101539.47
2017-07-04T18:53:13.509Z,101542.19
2017-07-04T18:53:32.988Z,101541.88
2017-07-04T18:53:53.802Z,101544.17
2017-07-04T18:54:15.560Z,101535.82
2017-07-04T18:54:32.660Z,101542.01
2017-07-04T18:54:51.093Z,101536.45
2017-07-04T18:55:08.193Z,101541.77
2017-07-04T18:55:24.762Z,101536.55
2017-07-04T18:55:45.745Z,101539.66
2017-07-04T18:56:02.878Z,101539.47
2017-07-04T18:56:24.483Z,101538.72
2017-07-04T18:56:42.790Z,101539.24
2017-07-04T18:57:02.883Z,101535.17
2017-07-04T18:57:21.113Z,101537.77
2017-07-04T18:57:40.449Z,101540.80
2017-07-04T18:57:58.715Z,101536.73
2017-07-04T18:58:16.725Z,101537.16